^^
Grace C. Lehan Memorial Weather Station Historical Data
Daily Summary for February 26, 2022 Units:  Both    English   Metric
Daily Weekly Monthly Yearly
  High: Low: Average:
Temperature: 32.7 °F /  0.4 °C 15.4 °F /  -9.2 °C 22.5 °F /  -5.3 °C
Dew Point: 18.1 °F /  -7.7 °C 9.3 °F /  -12.6 °C 12.8 °F /  -10.7 °C
Humidity: 78% 51.2% 67%
Wind Speed: 5mph /  8km/h - 1.3mph /  2.1km/h
Wind Gust: 17mph /  27.4km/h - -
Wind- - SW
Pressure: 30.45 in /  1031 hPa 30.31 in /  1026.3 hPa -
Precipitation: 0.00 in /  0 mm    
 
 
Tabular Data for February 26, 2022
Time Temperature Dew Point Pressure Wind Wind Speed Wind Gust Humidity Rainfall Rate (Hourly) solar
00:04 21.8 °F /  -5.7 °C 13.7 °F /  -10.2 °C 30.31in /  1026.3hPa NW 4.7mph /  7.6km/h 17mph /  27.4km/h 70.6% 0.00in /  0mm 0 W/m2
00:09 21.7 °F /  -5.7 °C 13.8 °F /  -10.1 °C 30.32in /  1026.6hPa NW 3.5mph /  5.6km/h 12mph /  19.3km/h 71% 0.00in /  0mm 0 W/m2
00:14 21.6 °F /  -5.8 °C 13.7 °F /  -10.2 °C 30.32in /  1026.6hPa NW 2mph /  3.2km/h 12mph /  19.3km/h 71% 0.00in /  0mm 0 W/m2
00:19 21.5 °F /  -5.8 °C 13.6 °F /  -10.2 °C 30.32in /  1026.6hPa West 3.2mph /  5.1km/h 12mph /  19.3km/h 71% 0.00in /  0mm 0 W/m2
00:24 21.5 °F /  -5.8 °C 13.5 °F /  -10.3 °C 30.31in /  1026.3hPa WNW 3.6mph /  5.8km/h 12mph /  19.3km/h 71% 0.00in /  0mm 0 W/m2
00:29 21.3 °F /  -5.9 °C 13.4 °F /  -10.3 °C 30.32in /  1026.6hPa WNW 3.7mph /  6km/h 12mph /  19.3km/h 71% 0.00in /  0mm 0 W/m2
00:34 21.2 °F /  -6 °C 13.3 °F /  -10.4 °C 30.32in /  1026.6hPa NW 3.1mph /  5km/h 12mph /  19.3km/h 71% 0.00in /  0mm 0 W/m2
00:39 21.2 °F /  -6 °C 13.3 °F /  -10.4 °C 30.32in /  1026.6hPa NW 2.8mph /  4.5km/h 10mph /  16.1km/h 71.3% 0.00in /  0mm 0 W/m2
00:44 21.1 °F /  -6.1 °C 13.5 °F /  -10.3 °C 30.33in /  1027hPa NW 3.8mph /  6.1km/h 10mph /  16.1km/h 72% 0.00in /  0mm 0 W/m2
00:49 21 °F /  -6.1 °C 13.4 °F /  -10.3 °C 30.33in /  1027hPa NW 4.7mph /  7.6km/h 12mph /  19.3km/h 72% 0.00in /  0mm 0 W/m2
00:54 20.9 °F /  -6.2 °C 13.3 °F /  -10.4 °C 30.33in /  1027hPa NW 3.4mph /  5.5km/h 12mph /  19.3km/h 72% 0.00in /  0mm 0 W/m2
00:59 20.9 °F /  -6.2 °C 13.3 °F /  -10.4 °C 30.33in /  1027hPa WNW 4.2mph /  6.8km/h 12mph /  19.3km/h 72% 0.00in /  0mm 0 W/m2
01:04 20.8 °F /  -6.2 °C 13.2 °F /  -10.4 °C 30.33in /  1027hPa WNW 2.5mph /  4km/h 12mph /  19.3km/h 72% 0.00in /  0mm 0 W/m2
01:09 20.7 °F /  -6.3 °C 13.1 °F /  -10.5 °C 30.33in /  1027hPa WNW 1mph /  1.6km/h 7mph /  11.3km/h 72% 0.00in /  0mm 0 W/m2
01:14 20.7 °F /  -6.3 °C 13.1 °F /  -10.5 °C 30.33in /  1027hPa WNW 0.1mph /  0.2km/h 7mph /  11.3km/h 72% 0.00in /  0mm 0 W/m2
01:19 20.5 °F /  -6.4 °C 13 °F /  -10.6 °C 30.33in /  1027hPa NW 3.9mph /  6.3km/h 12mph /  19.3km/h 72% 0.00in /  0mm 0 W/m2
01:24 20.4 °F /  -6.4 °C 12.8 °F /  -10.7 °C 30.33in /  1027hPa WNW 2.5mph /  4km/h 12mph /  19.3km/h 72% 0.00in /  0mm 0 W/m2
01:29 20.3 °F /  -6.5 °C 12.7 °F /  -10.7 °C 30.33in /  1027hPa NW 4.4mph /  7.1km/h 12mph /  19.3km/h 72% 0.00in /  0mm 0 W/m2
01:34 20.2 °F /  -6.6 °C 12.6 °F /  -10.8 °C 30.34in /  1027.3hPa NW 3.8mph /  6.1km/h 12mph /  19.3km/h 72% 0.00in /  0mm 0 W/m2
01:39 20 °F /  -6.7 °C 12.5 °F /  -10.8 °C 30.34in /  1027.3hPa NW 1.8mph /  2.9km/h 11mph /  17.7km/h 72% 0.00in /  0mm 0 W/m2
01:44 19.9 °F /  -6.7 °C 12.4 °F /  -10.9 °C 30.34in /  1027.3hPa NW 4.7mph /  7.6km/h 11mph /  17.7km/h 72% 0.00in /  0mm 0 W/m2
01:49 19.8 °F /  -6.8 °C 12.3 °F /  -10.9 °C 30.34in /  1027.3hPa NW 2.3mph /  3.7km/h 11mph /  17.7km/h 72% 0.00in /  0mm 0 W/m2
01:54 19.8 °F /  -6.8 °C 12.2 °F /  -11 °C 30.35in /  1027.7hPa NW 1.7mph /  2.7km/h 11mph /  17.7km/h 72% 0.00in /  0mm 0 W/m2
01:59 19.6 °F /  -6.9 °C 12.1 °F /  -11.1 °C 30.34in /  1027.3hPa NW 2.2mph /  3.5km/h 11mph /  17.7km/h 72% 0.00in /  0mm 0 W/m2
02:04 19.5 °F /  -6.9 °C 12 °F /  -11.1 °C 30.34in /  1027.3hPa WNW 0.6mph /  1km/h 11mph /  17.7km/h 72% 0.00in /  0mm 0 W/m2
02:09 19.4 °F /  -7 °C 11.9 °F /  -11.2 °C 30.34in /  1027.3hPa NW 2.5mph /  4km/h 9mph /  14.5km/h 72% 0.00in /  0mm 0 W/m2
02:14 19.3 °F /  -7.1 °C 11.8 °F /  -11.2 °C 30.34in /  1027.3hPa NW 2.5mph /  4km/h 10mph /  16.1km/h 72% 0.00in /  0mm 0 W/m2
02:19 19.2 °F /  -7.1 °C 11.7 °F /  -11.3 °C 30.34in /  1027.3hPa NNW 2.6mph /  4.2km/h 10mph /  16.1km/h 72% 0.00in /  0mm 0 W/m2
02:24 19.1 °F /  -7.2 °C 11.6 °F /  -11.3 °C 30.34in /  1027.3hPa NW 3.3mph /  5.3km/h 10mph /  16.1km/h 72% 0.00in /  0mm 0 W/m2
02:29 19 °F /  -7.2 °C 11.5 °F /  -11.4 °C 30.34in /  1027.3hPa NNW 4.1mph /  6.6km/h 10mph /  16.1km/h 72% 0.00in /  0mm 0 W/m2
02:34 18.9 °F /  -7.3 °C 11.3 °F /  -11.5 °C 30.33in /  1027hPa NW 4.5mph /  7.2km/h 11mph /  17.7km/h 72% 0.00in /  0mm 0 W/m2
02:39 18.8 °F /  -7.3 °C 11.3 °F /  -11.5 °C 30.34in /  1027.3hPa NW 4.5mph /  7.2km/h 12mph /  19.3km/h 72% 0.00in /  0mm 0 W/m2
02:44 18.7 °F /  -7.4 °C 11.1 °F /  -11.6 °C 30.34in /  1027.3hPa NW 5mph /  8km/h 12mph /  19.3km/h 72% 0.00in /  0mm 0 W/m2
02:49 18.6 °F /  -7.4 °C 11 °F /  -11.7 °C 30.34in /  1027.3hPa NW 4.2mph /  6.8km/h 12mph /  19.3km/h 72% 0.00in /  0mm 0 W/m2
02:54 18.4 °F /  -7.6 °C 10.9 °F /  -11.7 °C 30.34in /  1027.3hPa NW 4.3mph /  6.9km/h 12mph /  19.3km/h 72% 0.00in /  0mm 0 W/m2
02:59 18.3 °F /  -7.6 °C 10.8 °F /  -11.8 °C 30.34in /  1027.3hPa NW 4mph /  6.4km/h 12mph /  19.3km/h 72% 0.00in /  0mm 0 W/m2
03:04 18.2 °F /  -7.7 °C 10.7 °F /  -11.8 °C 30.34in /  1027.3hPa NW 2.7mph /  4.3km/h 12mph /  19.3km/h 72% 0.00in /  0mm 0 W/m2
03:09 18.1 °F /  -7.7 °C 10.8 °F /  -11.8 °C 30.34in /  1027.3hPa NW 2.4mph /  3.9km/h 8mph /  12.9km/h 72.4% 0.00in /  0mm 0 W/m2
03:14 18 °F /  -7.8 °C 10.9 °F /  -11.7 °C 30.35in /  1027.7hPa NW 1.2mph /  1.9km/h 8mph /  12.9km/h 73% 0.00in /  0mm 0 W/m2
03:19 18 °F /  -7.8 °C 10.8 °F /  -11.8 °C 30.35in /  1027.7hPa NW 2.6mph /  4.2km/h 8mph /  12.9km/h 73% 0.00in /  0mm 0 W/m2
03:24 17.8 °F /  -7.9 °C 10.7 °F /  -11.8 °C 30.34in /  1027.3hPa NW 3.9mph /  6.3km/h 10mph /  16.1km/h 73% 0.00in /  0mm 0 W/m2
03:29 17.7 °F /  -7.9 °C 10.5 °F /  -11.9 °C 30.35in /  1027.7hPa NW 2mph /  3.2km/h 10mph /  16.1km/h 73% 0.00in /  0mm 0 W/m2
03:34 17.7 °F /  -7.9 °C 10.5 °F /  -11.9 °C 30.35in /  1027.7hPa NW 1.7mph /  2.7km/h 10mph /  16.1km/h 73% 0.00in /  0mm 0 W/m2
03:39 17.6 °F /  -8 °C 10.4 °F /  -12 °C 30.35in /  1027.7hPa NW 1mph /  1.6km/h 6mph /  9.7km/h 73% 0.00in /  0mm 0 W/m2
03:44 17.5 °F /  -8.1 °C 10.4 °F /  -12 °C 30.35in /  1027.7hPa NW 2.8mph /  4.5km/h 6mph /  9.7km/h 73% 0.00in /  0mm 0 W/m2
03:49 17.5 °F /  -8.1 °C 10.3 °F /  -12.1 °C 30.36in /  1028hPa NW 1.8mph /  2.9km/h 6mph /  9.7km/h 73% 0.00in /  0mm 0 W/m2
03:54 17.4 °F /  -8.1 °C 10.2 °F /  -12.1 °C 30.36in /  1028hPa NW 1.2mph /  1.9km/h 6mph /  9.7km/h 73% 0.00in /  0mm 0 W/m2
03:59 17.3 °F /  -8.2 °C 10.2 °F /  -12.1 °C 30.36in /  1028hPa NW 0.4mph /  0.6km/h 6mph /  9.7km/h 73.3% 0.00in /  0mm 0 W/m2
04:00 17.3 °F /  -8.2 °C 10.5 °F /  -11.9 °C 30.36in /  1028hPa NW 2mph /  3.2km/h 6mph /  9.7km/h 74% 0.00in /  0mm 0 W/m2
04:09 17.1 °F /  -8.3 °C 10.3 °F /  -12.1 °C 30.36in /  1028hPa NW 2.6mph /  4.2km/h 6mph /  9.7km/h 74% 0.00in /  0mm 0 W/m2
04:14 17.1 °F /  -8.3 °C 10.3 °F /  -12.1 °C 30.37in /  1028.3hPa NW 1.8mph /  2.9km/h 6mph /  9.7km/h 74% 0.00in /  0mm 0 W/m2
04:19 17 °F /  -8.3 °C 10.2 °F /  -12.1 °C 30.37in /  1028.3hPa NW 2.4mph /  3.9km/h 6mph /  9.7km/h 74% 0.00in /  0mm 0 W/m2
04:24 17 °F /  -8.3 °C 10.2 °F /  -12.1 °C 30.37in /  1028.3hPa NW 1mph /  1.6km/h 6mph /  9.7km/h 74% 0.00in /  0mm 0 W/m2
04:29 16.9 °F /  -8.4 °C 10.1 °F /  -12.2 °C 30.37in /  1028.3hPa NW 1.3mph /  2.1km/h 6mph /  9.7km/h 74% 0.00in /  0mm 0 W/m2
04:34 16.8 °F /  -8.4 °C 10 °F /  -12.2 °C 30.38in /  1028.7hPa NW 2.5mph /  4km/h 6mph /  9.7km/h 74% 0.00in /  0mm 0 W/m2
04:39 16.8 °F /  -8.4 °C 10 °F /  -12.2 °C 30.38in /  1028.7hPa NW 1.6mph /  2.6km/h 6mph /  9.7km/h 74% 0.00in /  0mm 0 W/m2
04:44 16.7 °F /  -8.5 °C 9.9 °F /  -12.3 °C 30.38in /  1028.7hPa NW 0.8mph /  1.3km/h 6mph /  9.7km/h 74% 0.00in /  0mm 0 W/m2
04:49 16.7 °F /  -8.5 °C 9.8 °F /  -12.3 °C 30.38in /  1028.7hPa NW 0.1mph /  0.2km/h 6mph /  9.7km/h 74% 0.00in /  0mm 0 W/m2
04:54 16.6 °F /  -8.6 °C 9.8 °F /  -12.3 °C 30.38in /  1028.7hPa NW 0.3mph /  0.5km/h 6mph /  9.7km/h 74% 0.00in /  0mm 0 W/m2
04:59 16.5 °F /  -8.6 °C 9.7 °F /  -12.4 °C 30.39in /  1029hPa NW 0.5mph /  0.8km/h 6mph /  9.7km/h 74% 0.00in /  0mm 0 W/m2
05:04 16.4 °F /  -8.7 °C 9.8 °F /  -12.3 °C 30.39in /  1029hPa NW 1.8mph /  2.9km/h 6mph /  9.7km/h 74.8% 0.00in /  0mm 0 W/m2
05:09 16.4 °F /  -8.7 °C 9.9 °F /  -12.3 °C 30.39in /  1029hPa Calm   4mph /  6.4km/h 75% 0.00in /  0mm 0 W/m2
05:14 16.3 °F /  -8.7 °C 9.8 °F /  -12.3 °C 30.39in /  1029hPa Calm   4mph /  6.4km/h 75% 0.00in /  0mm 0 W/m2
05:19 16.3 °F /  -8.7 °C 9.7 °F /  -12.4 °C 30.39in /  1029hPa NW 0.1mph /  0.2km/h 4mph /  6.4km/h 75% 0.00in /  0mm 0 W/m2
05:24 16.2 °F /  -8.8 °C 9.7 °F /  -12.4 °C 30.39in /  1029hPa Calm   4mph /  6.4km/h 75% 0.00in /  0mm 0 W/m2
05:29 16.2 °F /  -8.8 °C 9.6 °F /  -12.4 °C 30.40in /  1029.3hPa Calm   4mph /  6.4km/h 75% 0.00in /  0mm 0 W/m2
05:34 16.1 °F /  -8.8 °C 9.6 °F /  -12.4 °C 30.40in /  1029.3hPa Calm   4mph /  6.4km/h 75% 0.00in /  0mm 0 W/m2
05:39 16.1 °F /  -8.8 °C 9.6 °F /  -12.4 °C 30.40in /  1029.3hPa Calm     75% 0.00in /  0mm 0 W/m2
05:44 16 °F /  -8.9 °C 9.5 °F /  -12.5 °C 30.40in /  1029.3hPa Calm     75% 0.00in /  0mm 0 W/m2
05:49 15.9 °F /  -8.9 °C 9.4 °F /  -12.6 °C 30.40in /  1029.3hPa Calm     75% 0.00in /  0mm 0 W/m2
05:54 15.9 °F /  -8.9 °C 9.4 °F /  -12.6 °C 30.39in /  1029hPa Calm     75% 0.00in /  0mm 0 W/m2
05:59 15.8 °F /  -9 °C 9.3 °F /  -12.6 °C 30.39in /  1029hPa Calm     75% 0.00in /  0mm 0 W/m2
06:04 15.8 °F /  -9 °C 9.3 °F /  -12.6 °C 30.40in /  1029.3hPa Calm     75.3% 0.00in /  0mm 0 W/m2
06:09 15.7 °F /  -9.1 °C 9.5 °F /  -12.5 °C 30.40in /  1029.3hPa Calm     76% 0.00in /  0mm 0 W/m2
06:14 15.6 °F /  -9.1 °C 9.4 °F /  -12.6 °C 30.40in /  1029.3hPa Calm     76% 0.00in /  0mm 0 W/m2
06:19 15.6 °F /  -9.1 °C 9.4 °F /  -12.6 °C 30.40in /  1029.3hPa Calm     76% 0.00in /  0mm 0 W/m2
06:24 15.6 °F /  -9.1 °C 9.6 °F /  -12.4 °C 30.41in /  1029.7hPa Calm     76.6% 0.00in /  0mm 0 W/m2
06:29 15.5 °F /  -9.2 °C 9.6 °F /  -12.4 °C 30.41in /  1029.7hPa Calm     77% 0.00in /  0mm 0 W/m2
06:34 15.5 °F /  -9.2 °C 9.6 °F /  -12.4 °C 30.42in /  1030hPa Calm     77% 0.00in /  0mm 5 W/m2
06:39 15.4 °F /  -9.2 °C 9.5 °F /  -12.5 °C 30.42in /  1030hPa Calm     77% 0.00in /  0mm 11 W/m2
06:44 15.4 °F /  -9.2 °C 9.8 °F /  -12.3 °C 30.42in /  1030hPa Calm     78% 0.00in /  0mm 16 W/m2
06:49 15.4 °F /  -9.2 °C 9.8 °F /  -12.3 °C 30.42in /  1030hPa Calm     78% 0.00in /  0mm 21 W/m2
06:54 15.4 °F /  -9.2 °C 9.8 °F /  -12.3 °C 30.42in /  1030hPa Calm     78% 0.00in /  0mm 35 W/m2
06:59 15.5 °F /  -9.2 °C 9.9 °F /  -12.3 °C 30.42in /  1030hPa Calm     78% 0.00in /  0mm 49 W/m2
07:04 15.7 °F /  -9.1 °C 10 °F /  -12.2 °C 30.43in /  1030.4hPa Calm     78% 0.00in /  0mm 53 W/m2
07:09 15.9 °F /  -8.9 °C 10.3 °F /  -12.1 °C 30.43in /  1030.4hPa Calm     78% 0.00in /  0mm 81 W/m2
07:14 16.3 °F /  -8.7 °C 10.6 °F /  -11.9 °C 30.43in /  1030.4hPa Calm     78% 0.00in /  0mm 84 W/m2
07:19 16.8 °F /  -8.4 °C 11.1 °F /  -11.6 °C 30.43in /  1030.4hPa NNW 0.7mph /  1.1km/h 7mph /  11.3km/h 77.9% 0.00in /  0mm 65 W/m2
07:24 17.4 °F /  -8.1 °C 11.1 °F /  -11.6 °C 30.43in /  1030.4hPa Calm   7mph /  11.3km/h 75.7% 0.00in /  0mm 84 W/m2
07:29 17.9 °F /  -7.8 °C 11.2 °F /  -11.6 °C 30.44in /  1030.7hPa Calm   7mph /  11.3km/h 74.5% 0.00in /  0mm 77 W/m2
07:34 18.3 °F /  -7.6 °C 11.2 °F /  -11.6 °C 30.44in /  1030.7hPa NNW 0.4mph /  0.6km/h 7mph /  11.3km/h 73.3% 0.00in /  0mm 127 W/m2
07:39 18.6 °F /  -7.4 °C 11.1 °F /  -11.6 °C 30.44in /  1030.7hPa NNW 0.5mph /  0.8km/h 6mph /  9.7km/h 71.9% 0.00in /  0mm 111 W/m2
07:44 19 °F /  -7.2 °C 11.1 °F /  -11.6 °C 30.45in /  1031hPa NNW 0.9mph /  1.4km/h 6mph /  9.7km/h 71% 0.00in /  0mm 100 W/m2
07:49 19.2 °F /  -7.1 °C 11 °F /  -11.7 °C 30.45in /  1031hPa NW 1mph /  1.6km/h 6mph /  9.7km/h 70% 0.00in /  0mm 102 W/m2
07:54 19.4 °F /  -7 °C 11 °F /  -11.7 °C 30.45in /  1031hPa NNW 3.1mph /  5km/h 8mph /  12.9km/h 69.2% 0.00in /  0mm 79 W/m2
07:59 19.7 °F /  -6.8 °C 11 °F /  -11.7 °C 30.45in /  1031hPa NNW 2mph /  3.2km/h 8mph /  12.9km/h 68.7% 0.00in /  0mm 197 W/m2
08:09 20.5 °F /  -6.4 °C 11.6 °F /  -11.3 °C 30.45in /  1031hPa NW 0.1mph /  0.2km/h 3mph /  4.8km/h 68% 0.00in /  0mm 149 W/m2
08:14 20.9 °F /  -6.2 °C 11.8 °F /  -11.2 °C 30.45in /  1031hPa NW 0.5mph /  0.8km/h 4mph /  6.4km/h 67.3% 0.00in /  0mm 128 W/m2
08:19 21.2 °F /  -6 °C 11.7 °F /  -11.3 °C 30.45in /  1031hPa NW 0.1mph /  0.2km/h 4mph /  6.4km/h 66.1% 0.00in /  0mm 169 W/m2
08:24 21.7 °F /  -5.7 °C 12.1 °F /  -11.1 °C 30.44in /  1030.7hPa Calm   4mph /  6.4km/h 66% 0.00in /  0mm 329 W/m2
08:29 22.4 °F /  -5.3 °C 12.8 °F /  -10.7 °C 30.44in /  1030.7hPa Calm   4mph /  6.4km/h 66% 0.00in /  0mm 417 W/m2
08:34 23.2 °F /  -4.9 °C 13.3 °F /  -10.4 °C 30.44in /  1030.7hPa Calm   4mph /  6.4km/h 65.3% 0.00in /  0mm 417 W/m2
08:39 24.3 °F /  -4.3 °C 13.8 °F /  -10.1 °C 30.44in /  1030.7hPa Calm     63.7% 0.00in /  0mm 443 W/m2
08:44 25.1 °F /  -3.8 °C 13.7 °F /  -10.2 °C 30.44in /  1030.7hPa Calm     61.5% 0.00in /  0mm 418 W/m2
08:49 25.7 °F /  -3.5 °C 14 °F /  -10 °C 30.44in /  1030.7hPa Calm     60.7% 0.00in /  0mm 496 W/m2
08:54 25.9 °F /  -3.4 °C 13.6 °F /  -10.2 °C 30.43in /  1030.4hPa Calm     59% 0.00in /  0mm 455 W/m2
08:59 26.2 °F /  -3.2 °C 13.8 °F /  -10.1 °C 30.43in /  1030.4hPa Calm     59% 0.00in /  0mm 487 W/m2
09:04 26.8 °F /  -2.9 °C 14.7 °F /  -9.6 °C 30.43in /  1030.4hPa Calm   2mph /  3.2km/h 59.6% 0.00in /  0mm 506 W/m2
09:09 27.4 °F /  -2.6 °C 14.6 °F /  -9.7 °C 30.43in /  1030.4hPa WNW 1.6mph /  2.6km/h 9mph /  14.5km/h 57.9% 0.00in /  0mm 520 W/m2
09:14 27.6 °F /  -2.4 °C 14.5 °F /  -9.7 °C 30.42in /  1030hPa NNW 1.1mph /  1.8km/h 9mph /  14.5km/h 57.4% 0.00in /  0mm 536 W/m2
09:19 28.2 °F /  -2.1 °C 15.8 °F /  -9 °C 30.42in /  1030hPa NNW 0.5mph /  0.8km/h 9mph /  14.5km/h 59.1% 0.00in /  0mm 540 W/m2
09:24 28.9 °F /  -1.7 °C 15.8 °F /  -9 °C 30.42in /  1030hPa NW 1.9mph /  3.1km/h 9mph /  14.5km/h 57.5% 0.00in /  0mm 540 W/m2
09:29 29.3 °F /  -1.5 °C 16.1 °F /  -8.8 °C 30.42in /  1030hPa WNW 0.5mph /  0.8km/h 9mph /  14.5km/h 57.2% 0.00in /  0mm 555 W/m2
09:34 29.6 °F /  -1.3 °C 16.1 °F /  -8.8 °C 30.42in /  1030hPa NNW 0.3mph /  0.5km/h 9mph /  14.5km/h 56.4% 0.00in /  0mm 566 W/m2
09:39 29.7 °F /  -1.3 °C 15.4 °F /  -9.2 °C 30.42in /  1030hPa NNE 0.2mph /  0.3km/h 3mph /  4.8km/h 54.7% 0.00in /  0mm 580 W/m2
09:44 29.5 °F /  -1.4 °C 15.4 °F /  -9.2 °C 30.42in /  1030hPa NE 0.2mph /  0.3km/h 3mph /  4.8km/h 55.2% 0.00in /  0mm 587 W/m2
09:49 29.7 °F /  -1.3 °C 16.1 °F /  -8.8 °C 30.42in /  1030hPa NNE 0.3mph /  0.5km/h 3mph /  4.8km/h 56.5% 0.00in /  0mm 599 W/m2
09:54 30.1 °F /  -1.1 °C 16 °F /  -8.9 °C 30.42in /  1030hPa NE 1.1mph /  1.8km/h 3mph /  4.8km/h 55.2% 0.00in /  0mm 608 W/m2
09:59 29.9 °F /  -1.2 °C 14.9 °F /  -9.5 °C 30.42in /  1030hPa Calm   3mph /  4.8km/h 53.3% 0.00in /  0mm 617 W/m2
10:04 30.1 °F /  -1.1 °C 16 °F /  -8.9 °C 30.41in /  1029.7hPa NNE 0.1mph /  0.2km/h 3mph /  4.8km/h 55.2% 0.00in /  0mm 629 W/m2
10:09 30.8 °F /  -0.7 °C 16.7 °F /  -8.5 °C 30.41in /  1029.7hPa NNE 0.2mph /  0.3km/h 3mph /  4.8km/h 55.5% 0.00in /  0mm 638 W/m2
10:14 31.4 °F /  -0.3 °C 16.7 °F /  -8.5 °C 30.41in /  1029.7hPa NNE 0.1mph /  0.2km/h 3mph /  4.8km/h 54% 0.00in /  0mm 649 W/m2
10:19 31.7 °F /  -0.2 °C 16.7 °F /  -8.5 °C 30.41in /  1029.7hPa NNE 0.3mph /  0.5km/h 3mph /  4.8km/h 53.2% 0.00in /  0mm 657 W/m2
10:24 31.9 °F /  -0.1 °C 16.7 °F /  -8.5 °C 30.40in /  1029.3hPa NNE 0.3mph /  0.5km/h 3mph /  4.8km/h 52.9% 0.00in /  0mm 663 W/m2
10:29 32.1 °F /  0.1 °C 17.1 °F /  -8.3 °C 30.40in /  1029.3hPa NE 0.6mph /  1km/h 4mph /  6.4km/h 53.6% 0.00in /  0mm 670 W/m2
10:34 32.3 °F /  0.2 °C 16.4 °F /  -8.7 °C 30.40in /  1029.3hPa NE 0.4mph /  0.6km/h 4mph /  6.4km/h 51.5% 0.00in /  0mm 659 W/m2
10:39 32.1 °F /  0.1 °C 16.2 °F /  -8.8 °C 30.40in /  1029.3hPa NE 0.9mph /  1.4km/h 3mph /  4.8km/h 51.5% 0.00in /  0mm 216 W/m2
10:44 31.9 °F /  -0.1 °C 16.4 °F /  -8.7 °C 30.40in /  1029.3hPa ENE 0.1mph /  0.2km/h 3mph /  4.8km/h 52.3% 0.00in /  0mm 227 W/m2
10:49 31.8 °F /  -0.1 °C 17.5 °F /  -8.1 °C 30.39in /  1029hPa ENE 0.4mph /  0.6km/h 3mph /  4.8km/h 54.9% 0.00in /  0mm 443 W/m2
10:54 32.5 °F /  0.3 °C 18.1 °F /  -7.7 °C 30.39in /  1029hPa ENE 0.8mph /  1.3km/h 3mph /  4.8km/h 54.8% 0.00in /  0mm 610 W/m2
10:59 32.7 °F /  0.4 °C 16.9 °F /  -8.4 °C 30.39in /  1029hPa ENE 1.1mph /  1.8km/h 3mph /  4.8km/h 51.7% 0.00in /  0mm 559 W/m2
11:04 32.4 °F /  0.2 °C 17.1 °F /  -8.3 °C 30.39in /  1029hPa ENE 0.6mph /  1km/h 3mph /  4.8km/h 52.8% 0.00in /  0mm 598 W/m2
11:09 32.4 °F /  0.2 °C 17.2 °F /  -8.2 °C 30.39in /  1029hPa NNE 1mph /  1.6km/h 3mph /  4.8km/h 53% 0.00in /  0mm 527 W/m2
11:14 32.5 °F /  0.3 °C 17 °F /  -8.3 °C 30.38in /  1028.7hPa ENE 1.5mph /  2.4km/h 4mph /  6.4km/h 52.3% 0.00in /  0mm 427 W/m2
11:19 32.5 °F /  0.3 °C 17.1 °F /  -8.3 °C 30.37in /  1028.3hPa NE 0.7mph /  1.1km/h 5mph /  8km/h 52.6% 0.00in /  0mm 234 W/m2
11:24 32.4 °F /  0.2 °C 16.7 °F /  -8.5 °C 30.37in /  1028.3hPa NE 1.7mph /  2.7km/h 5mph /  8km/h 51.9% 0.00in /  0mm 234 W/m2
11:29 31.9 °F /  -0.1 °C 15.9 °F /  -8.9 °C 30.37in /  1028.3hPa ENE 1.3mph /  2.1km/h 5mph /  8km/h 51.2% 0.00in /  0mm 193 W/m2
11:34 31.4 °F /  -0.3 °C 16.1 °F /  -8.8 °C 30.37in /  1028.3hPa ENE 2mph /  3.2km/h 5mph /  8km/h 52.5% 0.00in /  0mm 487 W/m2
11:39 31.2 °F /  -0.4 °C 15.5 °F /  -9.2 °C 30.37in /  1028.3hPa ENE 1.3mph /  2.1km/h 6mph /  9.7km/h 51.9% 0.00in /  0mm 740 W/m2
11:44 31 °F /  -0.6 °C 16.1 °F /  -8.8 °C 30.36in /  1028hPa ENE 0.3mph /  0.5km/h 6mph /  9.7km/h 53.5% 0.00in /  0mm 740 W/m2
11:49 31.1 °F /  -0.5 °C 16.1 °F /  -8.8 °C 30.36in /  1028hPa ENE 1.1mph /  1.8km/h 6mph /  9.7km/h 53.3% 0.00in /  0mm 745 W/m2
11:54 31.3 °F /  -0.4 °C 16.6 °F /  -8.6 °C 30.36in /  1028hPa NE 1.2mph /  1.9km/h 6mph /  9.7km/h 54.1% 0.00in /  0mm 745 W/m2
11:59 31.5 °F /  -0.3 °C 17.3 °F /  -8.2 °C 30.36in /  1028hPa NE 0.9mph /  1.4km/h 6mph /  9.7km/h 55.2% 0.00in /  0mm 654 W/m2
12:00 31.5 °F /  -0.3 °C 16.8 °F /  -8.4 °C 30.35in /  1027.7hPa Calm   6mph /  9.7km/h 54% 0.00in /  0mm 65 W/m2
12:09 31.8 °F /  -0.1 °C 17.5 °F /  -8.1 °C 30.35in /  1027.7hPa NE 1.7mph /  2.7km/h 6mph /  9.7km/h 54.9% 0.00in /  0mm 244 W/m2
12:14 32.1 °F /  0.1 °C 17.5 °F /  -8.1 °C 30.35in /  1027.7hPa Calm   6mph /  9.7km/h 54.5% 0.00in /  0mm 230 W/m2
12:19 32.3 °F /  0.2 °C 17.3 °F /  -8.2 °C 30.34in /  1027.3hPa NE 0.6mph /  1km/h 6mph /  9.7km/h 53.5% 0.00in /  0mm 357 W/m2
12:24 32.1 °F /  0.1 °C 16.5 °F /  -8.6 °C 30.34in /  1027.3hPa NE 0.1mph /  0.2km/h 6mph /  9.7km/h 52% 0.00in /  0mm 357 W/m2
12:29 31.7 °F /  -0.2 °C 16.1 °F /  -8.8 °C 30.34in /  1027.3hPa NE 0.3mph /  0.5km/h 6mph /  9.7km/h 51.9% 0.00in /  0mm 343 W/m2
12:34 31.6 °F /  -0.2 °C 16.3 °F /  -8.7 °C 30.34in /  1027.3hPa NE 0.6mph /  1km/h 6mph /  9.7km/h 52.6% 0.00in /  0mm 185 W/m2
12:39 31.7 °F /  -0.2 °C 16.6 °F /  -8.6 °C 30.34in /  1027.3hPa ENE 0.5mph /  0.8km/h 2mph /  3.2km/h 53.3% 0.00in /  0mm 141 W/m2
12:44 31.6 °F /  -0.2 °C 16.5 °F /  -8.6 °C 30.34in /  1027.3hPa ENE 0.6mph /  1km/h 3mph /  4.8km/h 53.2% 0.00in /  0mm 162 W/m2
12:49 31.6 °F /  -0.2 °C 16.4 °F /  -8.7 °C 30.33in /  1027hPa ENE 0.8mph /  1.3km/h 3mph /  4.8km/h 53% 0.00in /  0mm 172 W/m2
12:54 31.4 °F /  -0.3 °C 16.6 °F /  -8.6 °C 30.33in /  1027hPa East 0.2mph /  0.3km/h 3mph /  4.8km/h 53.8% 0.00in /  0mm 301 W/m2
12:59 31.5 °F /  -0.3 °C 16.8 °F /  -8.4 °C 30.33in /  1027hPa East 0.4mph /  0.6km/h 3mph /  4.8km/h 54% 0.00in /  0mm 120 W/m2
13:03 31.6 °F /  -0.2 °C 16.5 °F /  -8.6 °C 30.32in /  1026.6hPa East 0.3mph /  0.5km/h 3mph /  4.8km/h 53.2% 0.00in /  0mm 209 W/m2
Hartford County Weather
Compliments of Weather Underground - 4 mb